sim
Sign-in with your pilot id or email,
or register
Callsign
Passwort

Schedule Details

Flight Number: OEO4785
Departure: Almería International Airport (LEAM) at 09:40
Arrival: Munich Airport (EDDM) at 12:20

Weather Information
Getting current METAR information for LEAM 282100Z AUTO 03004KT 010V070 CAVOK 23/10 Q1016
Getting current METAR information for EDDM 282050Z 08003KT CAVOK 09/07 Q1015 NOSIG

Schedule Frequency

Route Map